createdAt,value
2022-08-14T00:01:02.469Z,9.27
2022-08-14T00:03:37.438Z,9.25
2022-08-14T00:06:14.101Z,9.00
2022-08-14T00:08:51.212Z,9.40
2022-08-14T00:11:19.624Z,8.70
2022-08-14T00:13:51.742Z,9.25
2022-08-14T00:16:41.499Z,9.38
2022-08-14T00:19:21.158Z,9.60
2022-08-14T00:21:50.911Z,9.70
2022-08-14T00:24:23.318Z,9.68
2022-08-14T00:26:55.668Z,9.75
2022-08-14T00:29:25.214Z,9.88
2022-08-14T00:34:37.216Z,9.82
2022-08-14T00:37:11.274Z,10.30
2022-08-14T00:39:39.349Z,10.73
2022-08-14T00:42:07.503Z,10.00
2022-08-14T00:44:48.529Z,10.02
2022-08-14T00:47:16.666Z,9.60
2022-08-14T00:49:44.862Z,9.95
2022-08-14T00:52:18.242Z,9.88
2022-08-14T00:54:47.408Z,10.07
2022-08-14T00:57:14.153Z,9.57
2022-08-14T00:59:41.307Z,9.48
2022-08-14T01:02:09.356Z,9.35
2022-08-14T01:04:38.001Z,9.63
2022-08-14T01:07:21.724Z,9.60
2022-08-14T01:10:01.696Z,9.38
2022-08-14T01:12:40.658Z,8.82
2022-08-14T01:15:09.434Z,8.73
2022-08-14T01:17:55.246Z,8.90
2022-08-14T01:20:41.405Z,8.48
2022-08-14T01:23:16.625Z,8.80
2022-08-14T01:25:51.036Z,8.88
2022-08-14T01:28:34.317Z,8.85
2022-08-14T01:31:08.689Z,8.88
2022-08-14T01:34:00.415Z,8.60
2022-08-14T01:36:29.801Z,9.00
2022-08-14T01:39:04.082Z,8.95
2022-08-14T01:41:40.803Z,8.77
2022-08-14T01:44:32.319Z,9.07
2022-08-14T01:47:01.309Z,8.93
2022-08-14T01:49:35.538Z,8.80
2022-08-14T01:52:03.632Z,8.70
2022-08-14T01:54:38.131Z,8.35
2022-08-14T01:57:11.566Z,8.25
2022-08-14T01:59:43.105Z,8.65
2022-08-14T02:02:19.587Z,7.88
2022-08-14T02:04:56.724Z,8.38
2022-08-14T02:07:34.493Z,8.60
2022-08-14T02:10:15.527Z,8.85
2022-08-14T02:12:43.507Z,8.40
2022-08-14T02:15:11.363Z,8.40
2022-08-14T02:17:39.180Z,8.75
2022-08-14T02:20:08.601Z,8.85
2022-08-14T02:22:35.461Z,8.63
2022-08-14T02:25:14.124Z,8.15
2022-08-14T02:28:24.310Z,8.07
2022-08-14T02:30:31.957Z,8.32
2022-08-14T02:32:58.824Z,8.25
2022-08-14T02:35:32.730Z,8.88
2022-08-14T02:38:00.025Z,9.05
2022-08-14T02:40:31.845Z,7.97
2022-08-14T02:43:00.595Z,8.45
2022-08-14T02:45:38.426Z,8.35
2022-08-14T02:49:04.728Z,8.65
2022-08-14T02:51:00.525Z,8.35
2022-08-14T02:53:27.095Z,8.90
2022-08-14T02:55:56.400Z,8.68
2022-08-14T02:58:31.128Z,8.32
2022-08-14T03:00:59.118Z,8.23
2022-08-14T03:03:25.957Z,8.93
2022-08-14T03:05:54.355Z,7.90
2022-08-14T03:08:22.190Z,8.15
2022-08-14T03:10:50.281Z,8.43
2022-08-14T03:13:21.665Z,8.73
2022-08-14T03:15:55.796Z,7.90
2022-08-14T03:18:31.583Z,8.48
2022-08-14T03:21:03.563Z,8.07
2022-08-14T03:23:38.000Z,8.40
2022-08-14T03:26:08.525Z,9.02
2022-08-14T03:28:36.624Z,7.82
2022-08-14T03:31:04.275Z,8.23
2022-08-14T03:33:40.280Z,8.38
2022-08-14T03:37:52.042Z,8.55
2022-08-14T03:39:12.322Z,8.02
2022-08-14T03:41:42.777Z,8.95
2022-08-14T03:45:18.684Z,8.13
2022-08-14T03:46:56.435Z,8.70
2022-08-14T03:49:28.581Z,7.95
2022-08-14T03:51:58.396Z,8.77
2022-08-14T03:54:28.740Z,8.52
2022-08-14T03:57:00.580Z,8.40
2022-08-14T03:59:29.719Z,8.32
2022-08-14T04:02:01.406Z,8.20
2022-08-14T04:04:30.573Z,8.30
2022-08-14T04:06:59.177Z,8.77
2022-08-14T04:09:27.077Z,8.40
2022-08-14T04:11:54.439Z,8.45
2022-08-14T04:14:22.857Z,8.32
2022-08-14T04:16:50.259Z,8.10
2022-08-14T04:19:19.305Z,8.35
2022-08-14T04:22:03.966Z,7.97
2022-08-14T04:24:37.630Z,8.50
2022-08-14T04:27:09.991Z,8.15
2022-08-14T04:29:42.447Z,8.25
2022-08-14T04:32:59.062Z,8.60
2022-08-14T04:34:57.463Z,8.48
2022-08-14T04:37:43.115Z,8.02
2022-08-14T04:40:29.035Z,8.02
2022-08-14T04:43:17.370Z,7.60
2022-08-14T04:45:45.016Z,8.38
2022-08-14T04:48:39.140Z,8.05
2022-08-14T04:51:11.721Z,8.35
2022-08-14T04:53:43.167Z,7.75
2022-08-14T04:56:31.682Z,8.18
2022-08-14T04:59:10.273Z,8.63
2022-08-14T05:01:41.550Z,8.70
2022-08-14T05:04:16.114Z,8.30
2022-08-14T05:06:46.925Z,8.02
2022-08-14T05:09:15.972Z,8.57
2022-08-14T05:11:44.213Z,8.45
2022-08-14T05:14:34.473Z,8.05
2022-08-14T05:17:01.974Z,8.07
2022-08-14T05:19:29.878Z,7.93
2022-08-14T05:22:15.912Z,8.70
2022-08-14T05:24:50.415Z,8.07
2022-08-14T05:27:23.092Z,8.02
2022-08-14T05:29:53.258Z,7.95
2022-08-14T05:32:20.240Z,7.72
2022-08-14T05:34:46.937Z,8.00
2022-08-14T05:37:15.321Z,8.23
2022-08-14T05:39:42.753Z,7.78
2022-08-14T05:42:09.877Z,7.60
2022-08-14T05:44:48.392Z,8.10
2022-08-14T05:47:16.016Z,7.50
2022-08-14T05:49:43.646Z,7.00
2022-08-14T05:52:10.630Z,7.82
2022-08-14T05:54:44.304Z,7.57
2022-08-14T05:57:10.845Z,7.80
2022-08-14T05:59:39.571Z,7.40
2022-08-14T06:02:07.807Z,7.93
2022-08-14T06:04:36.794Z,7.35
2022-08-14T06:07:03.489Z,7.75
2022-08-14T06:09:35.739Z,7.78
2022-08-14T06:12:10.346Z,7.90
2022-08-14T06:14:38.701Z,7.60
2022-08-14T06:17:05.773Z,8.25
2022-08-14T06:19:32.286Z,7.85
2022-08-14T06:21:59.595Z,7.57
2022-08-14T06:24:30.796Z,7.60
2022-08-14T06:27:06.366Z,7.57
2022-08-14T06:29:37.954Z,7.75
2022-08-14T06:32:36.497Z,7.30
2022-08-14T06:35:02.497Z,7.50
2022-08-14T06:37:42.416Z,7.20
2022-08-14T06:40:25.748Z,7.53
2022-08-14T06:42:55.638Z,8.18
2022-08-14T06:45:26.402Z,7.70
2022-08-14T06:47:54.474Z,7.90
2022-08-14T06:50:28.020Z,7.38
2022-08-14T06:52:55.949Z,7.50
2022-08-14T06:55:26.476Z,8.18
2022-08-14T06:57:55.146Z,7.53
2022-08-14T07:00:26.903Z,7.57
2022-08-14T07:03:13.387Z,7.78
2022-08-14T07:05:55.006Z,8.10
2022-08-14T07:08:26.387Z,7.28
2022-08-14T07:11:00.634Z,8.40
2022-08-14T07:13:28.421Z,7.70
2022-08-14T07:15:58.383Z,7.63
2022-08-14T07:18:28.181Z,7.85
2022-08-14T07:23:26.537Z,7.90
2022-08-14T07:25:58.303Z,7.75
2022-08-14T07:28:45.267Z,8.20
2022-08-14T07:31:12.615Z,8.00
2022-08-14T07:33:43.658Z,8.05
2022-08-14T07:36:26.370Z,7.55
2022-08-14T07:38:56.185Z,8.38
2022-08-14T07:41:22.629Z,7.88
2022-08-14T07:43:55.594Z,8.13
2022-08-14T07:46:29.321Z,8.07
2022-08-14T07:48:58.119Z,8.00
2022-08-14T07:51:26.101Z,7.93
2022-08-14T07:54:00.762Z,8.40
2022-08-14T07:56:48.138Z,7.55
2022-08-14T07:59:18.155Z,8.25
2022-08-14T08:01:51.356Z,8.10
2022-08-14T08:04:24.554Z,7.63
2022-08-14T08:06:52.919Z,7.95
2022-08-14T08:09:25.216Z,8.48
2022-08-14T08:12:01.779Z,8.77
2022-08-14T08:14:34.179Z,8.50
2022-08-14T08:17:23.265Z,8.30
2022-08-14T08:19:51.610Z,8.02
2022-08-14T08:22:18.557Z,8.20
2022-08-14T08:24:45.037Z,8.40
2022-08-14T08:27:16.844Z,8.30
2022-08-14T08:29:50.741Z,8.40
2022-08-14T08:32:18.409Z,8.02
2022-08-14T08:34:46.814Z,8.77
2022-08-14T08:37:14.728Z,8.40
2022-08-14T08:40:03.144Z,8.20
2022-08-14T08:42:38.685Z,8.20
2022-08-14T08:45:11.892Z,8.52
2022-08-14T08:47:40.481Z,8.68
2022-08-14T08:53:00.027Z,8.30
2022-08-14T08:55:42.684Z,8.30
2022-08-14T08:58:19.776Z,8.27
2022-08-14T09:00:54.332Z,8.15
2022-08-14T09:03:25.503Z,7.90
2022-08-14T09:06:53.868Z,8.55
2022-08-14T09:08:52.397Z,8.35
2022-08-14T09:11:21.464Z,8.45
2022-08-14T09:13:52.973Z,8.35
2022-08-14T09:16:25.919Z,8.50
2022-08-14T09:18:54.074Z,8.65
2022-08-14T09:21:24.297Z,8.10
2022-08-14T09:24:29.478Z,8.20
2022-08-14T09:26:43.326Z,7.78
2022-08-14T09:29:11.170Z,7.70
2022-08-14T09:31:53.314Z,7.95
2022-08-14T09:34:47.488Z,8.27
2022-08-14T09:37:43.901Z,8.15
2022-08-14T09:40:21.197Z,7.75
2022-08-14T09:43:07.193Z,8.10
2022-08-14T09:45:53.559Z,7.75
2022-08-14T09:48:30.268Z,7.40
2022-08-14T09:53:34.205Z,8.35
2022-08-14T09:56:30.138Z,8.27
2022-08-14T09:59:10.651Z,8.43
2022-08-14T10:01:37.518Z,8.27
2022-08-14T10:04:06.966Z,7.82
2022-08-14T10:06:52.306Z,7.85
2022-08-14T10:09:19.436Z,8.05
2022-08-14T10:11:58.883Z,7.40
2022-08-14T10:14:35.470Z,8.13
2022-08-14T10:17:06.270Z,8.05
2022-08-14T10:19:35.632Z,7.93
2022-08-14T10:24:57.531Z,8.13
2022-08-14T10:27:27.109Z,8.40
2022-08-14T10:30:04.589Z,8.00
2022-08-14T10:32:51.702Z,8.60
2022-08-14T10:35:18.942Z,8.98
2022-08-14T10:37:51.362Z,8.93
2022-08-14T10:40:38.777Z,8.30
2022-08-14T10:43:23.951Z,8.10
2022-08-14T10:46:03.522Z,7.88
2022-08-14T10:49:04.038Z,8.30
2022-08-14T10:51:35.316Z,8.68
2022-08-14T10:54:16.940Z,8.93
2022-08-14T10:56:57.850Z,8.75
2022-08-14T10:59:34.892Z,9.20
2022-08-14T11:02:17.550Z,9.30
2022-08-14T11:04:44.284Z,9.00
2022-08-14T11:07:19.249Z,9.05
2022-08-14T11:10:00.153Z,9.10
2022-08-14T11:12:40.687Z,9.13
2022-08-14T11:15:07.951Z,10.48
2022-08-14T11:17:38.644Z,10.20
2022-08-14T11:20:13.718Z,9.35
2022-08-14T11:22:52.297Z,10.18
2022-08-14T11:25:44.056Z,9.43
2022-08-14T11:28:18.801Z,9.13
2022-08-14T11:30:53.686Z,9.85
2022-08-14T11:33:32.672Z,9.50
2022-08-14T11:36:01.738Z,9.98
2022-08-14T11:38:35.803Z,10.05
2022-08-14T11:41:05.703Z,9.18
2022-08-14T11:43:57.926Z,9.25
2022-08-14T11:46:30.292Z,8.93
2022-08-14T11:49:05.172Z,9.75
2022-08-14T11:51:47.474Z,8.70
2022-08-14T11:54:34.461Z,8.80
2022-08-14T11:57:02.255Z,9.57
2022-08-14T11:59:33.587Z,8.98
2022-08-14T12:03:00.141Z,9.00
2022-08-14T12:05:04.787Z,9.10
2022-08-14T12:07:36.118Z,9.38
2022-08-14T12:10:27.216Z,9.52
2022-08-14T12:12:52.549Z,8.95
2022-08-14T12:15:29.427Z,8.75
2022-08-14T12:17:56.383Z,9.15
2022-08-14T12:20:32.507Z,9.05
2022-08-14T12:23:01.086Z,9.43
2022-08-14T12:25:29.312Z,9.27
2022-08-14T12:27:59.073Z,9.00
2022-08-14T12:30:44.381Z,9.40
2022-08-14T12:33:23.781Z,9.55
2022-08-14T12:35:51.372Z,9.35
2022-08-14T12:38:54.266Z,9.27
2022-08-14T12:41:28.068Z,10.00
2022-08-14T12:44:03.257Z,9.75
2022-08-14T12:46:35.044Z,9.40
2022-08-14T12:49:18.651Z,9.98
2022-08-14T12:51:57.123Z,9.10
2022-08-14T12:54:28.407Z,9.33
2022-08-14T12:57:19.517Z,9.02
2022-08-14T12:59:47.366Z,8.85
2022-08-14T13:02:27.878Z,8.77
2022-08-14T13:04:55.878Z,10.53
2022-08-14T13:07:23.981Z,9.35
2022-08-14T13:09:56.010Z,9.85
2022-08-14T13:12:33.159Z,10.10
2022-08-14T13:15:14.774Z,9.82
2022-08-14T13:17:47.014Z,10.18
2022-08-14T13:20:23.523Z,10.25
2022-08-14T13:22:52.919Z,9.68
2022-08-14T13:25:22.844Z,9.65
2022-08-14T13:27:54.993Z,9.75
2022-08-14T13:30:24.825Z,9.18
2022-08-14T13:32:57.723Z,9.27
2022-08-14T13:35:25.508Z,9.48
2022-08-14T13:37:53.682Z,9.52
2022-08-14T13:40:26.285Z,9.13
2022-08-14T13:42:55.273Z,9.32
2022-08-14T13:45:34.027Z,9.40
2022-08-14T13:48:27.230Z,9.02
2022-08-14T13:51:01.906Z,9.02
2022-08-14T13:53:33.328Z,8.82
2022-08-14T13:56:01.581Z,8.95
2022-08-14T13:58:34.614Z,8.90
2022-08-14T14:01:04.276Z,9.23
2022-08-14T14:03:35.178Z,8.80
2022-08-14T14:06:02.881Z,9.10
2022-08-14T14:08:42.915Z,8.50
2022-08-14T14:11:11.067Z,9.18
2022-08-14T14:13:41.807Z,9.02
2022-08-14T14:16:14.982Z,8.98
2022-08-14T14:18:43.829Z,9.10
2022-08-14T14:21:13.938Z,9.02
2022-08-14T14:23:42.840Z,8.85
2022-08-14T14:26:14.124Z,8.70
2022-08-14T14:28:42.629Z,7.90
2022-08-14T14:31:11.425Z,7.50
2022-08-14T14:33:46.624Z,7.68
2022-08-14T14:36:20.823Z,7.47
2022-08-14T14:38:52.387Z,7.47
2022-08-14T14:41:24.210Z,7.82
2022-08-14T14:43:52.258Z,7.93
2022-08-14T14:46:22.399Z,7.32
2022-08-14T14:49:06.469Z,7.70
2022-08-14T14:51:34.952Z,8.05
2022-08-14T14:54:02.296Z,7.57
2022-08-14T14:56:48.178Z,7.60
2022-08-14T14:59:18.300Z,7.72
2022-08-14T15:01:49.106Z,7.97
2022-08-14T15:04:20.556Z,8.18
2022-08-14T15:06:49.105Z,8.10
2022-08-14T15:09:18.105Z,8.00
2022-08-14T15:14:55.706Z,8.30
2022-08-14T15:16:59.058Z,8.32
2022-08-14T15:19:27.303Z,7.80
2022-08-14T15:21:55.295Z,9.13
2022-08-14T15:24:26.579Z,8.40
2022-08-14T15:26:54.327Z,7.78
2022-08-14T15:29:20.759Z,7.82
2022-08-14T15:31:47.381Z,8.57
2022-08-14T15:34:44.039Z,8.10
2022-08-14T15:37:06.635Z,8.18
2022-08-14T15:39:41.497Z,8.40
2022-08-14T15:44:44.769Z,7.93
2022-08-14T15:47:27.715Z,7.97
2022-08-14T15:49:56.320Z,7.70
2022-08-14T15:52:32.394Z,7.85
2022-08-14T15:55:06.558Z,7.30
2022-08-14T15:57:34.473Z,7.95
2022-08-14T16:00:21.583Z,7.70
2022-08-14T16:03:15.599Z,8.00
2022-08-14T16:05:43.353Z,7.43
2022-08-14T16:08:26.871Z,7.72
2022-08-14T16:10:56.736Z,7.43
2022-08-14T16:13:41.535Z,7.22
2022-08-14T16:16:34.386Z,7.80
2022-08-14T16:19:11.136Z,7.47
2022-08-14T16:22:01.710Z,7.70
2022-08-14T16:24:33.542Z,7.43
2022-08-14T16:27:01.435Z,7.25
2022-08-14T16:29:31.051Z,7.78
2022-08-14T16:32:01.782Z,7.18
2022-08-14T16:34:50.071Z,7.43
2022-08-14T16:37:21.161Z,7.30
2022-08-14T16:39:49.300Z,7.60
2022-08-14T16:42:38.999Z,7.57
2022-08-14T16:45:02.649Z,7.85
2022-08-14T16:47:32.005Z,8.10
2022-08-14T16:50:08.685Z,7.63
2022-08-14T16:52:44.187Z,7.90
2022-08-14T16:55:14.244Z,8.15
2022-08-14T16:57:58.877Z,7.90
2022-08-14T17:00:44.021Z,8.00
2022-08-14T17:03:12.453Z,8.20
2022-08-14T17:05:42.962Z,9.23
2022-08-14T17:08:31.961Z,9.32
2022-08-14T17:11:09.725Z,8.27
2022-08-14T17:13:59.303Z,7.78
2022-08-14T17:16:38.574Z,9.23
2022-08-14T17:19:13.965Z,8.88
2022-08-14T17:21:46.689Z,9.57
2022-08-14T17:24:58.510Z,8.60
2022-08-14T17:27:03.631Z,9.50
2022-08-14T17:29:33.628Z,9.60
2022-08-14T17:32:07.167Z,9.23
2022-08-14T17:34:53.881Z,9.65
2022-08-14T17:37:29.723Z,9.55
2022-08-14T17:40:01.240Z,10.02
2022-08-14T17:42:51.785Z,10.10
2022-08-14T17:45:26.837Z,9.43
2022-08-14T17:47:59.130Z,9.65
2022-08-14T17:50:59.564Z,9.43
2022-08-14T17:53:27.586Z,9.35
2022-08-14T17:58:42.146Z,9.40
2022-08-14T18:01:13.598Z,9.00
2022-08-14T18:03:50.824Z,9.27
2022-08-14T18:09:24.566Z,9.30
2022-08-14T18:11:54.287Z,9.85
2022-08-14T18:14:32.264Z,8.98
2022-08-14T18:17:01.475Z,10.10
2022-08-14T18:19:30.887Z,9.15
2022-08-14T18:21:59.386Z,10.07
2022-08-14T18:24:30.007Z,9.52
2022-08-14T18:27:23.229Z,9.63
2022-08-14T18:29:55.482Z,9.77
2022-08-14T18:32:31.407Z,9.70
2022-08-14T18:35:03.359Z,9.60
2022-08-14T18:37:39.346Z,10.13
2022-08-14T18:40:34.751Z,9.88
2022-08-14T18:43:03.654Z,10.20
2022-08-14T18:45:33.273Z,10.02
2022-08-14T18:48:18.731Z,9.70
2022-08-14T18:51:02.469Z,9.25
2022-08-14T18:53:33.985Z,9.40
2022-08-14T18:56:09.368Z,9.73
2022-08-14T18:58:57.158Z,9.80
2022-08-14T19:01:29.783Z,9.52
2022-08-14T19:03:58.570Z,10.20
2022-08-14T19:06:44.716Z,9.50
2022-08-14T19:09:50.720Z,9.02
2022-08-14T19:12:58.160Z,9.00
2022-08-14T19:15:31.527Z,8.63
2022-08-14T19:18:10.539Z,9.25
2022-08-14T19:20:46.786Z,8.57
2022-08-14T19:23:18.185Z,8.82
2022-08-14T19:25:59.413Z,9.05
2022-08-14T19:28:48.931Z,9.65
2022-08-14T19:31:42.007Z,9.10
2022-08-14T19:34:09.214Z,9.52
2022-08-14T19:37:05.755Z,8.98
2022-08-14T19:39:54.312Z,9.35
2022-08-14T19:42:28.276Z,8.82
2022-08-14T19:44:57.371Z,9.30
2022-08-14T19:47:41.306Z,9.57
2022-08-14T19:50:39.023Z,9.15
2022-08-14T19:53:11.106Z,9.55
2022-08-14T19:55:39.335Z,9.40
2022-08-14T19:58:12.949Z,8.50
2022-08-14T20:00:52.494Z,8.70
2022-08-14T20:03:23.866Z,9.00
2022-08-14T20:06:00.582Z,8.88
2022-08-14T20:10:59.770Z,9.20
2022-08-14T20:12:00.609Z,8.50
2022-08-14T20:14:22.974Z,8.85
2022-08-14T20:17:06.284Z,9.32
2022-08-14T20:19:38.085Z,9.02
2022-08-14T20:22:35.564Z,9.73
2022-08-14T20:25:11.341Z,9.88
2022-08-14T20:27:40.766Z,9.68
2022-08-14T20:30:34.063Z,9.25
2022-08-14T20:33:11.314Z,8.73
2022-08-14T20:35:43.345Z,9.05
2022-08-14T20:38:30.777Z,9.43
2022-08-14T20:41:09.784Z,9.03
2022-08-14T20:43:59.758Z,9.00
2022-08-14T20:46:38.633Z,9.23
2022-08-14T20:49:16.510Z,9.13
2022-08-14T20:51:59.043Z,9.40
2022-08-14T20:54:34.721Z,7.95
2022-08-14T20:57:12.041Z,8.65
2022-08-14T20:59:53.640Z,8.80
2022-08-14T21:02:29.502Z,8.80
2022-08-14T21:05:03.550Z,8.95
2022-08-14T21:07:50.433Z,9.48
2022-08-14T21:10:33.909Z,9.70
2022-08-14T21:13:58.717Z,9.25
2022-08-14T21:15:57.130Z,9.57
2022-08-14T21:18:30.573Z,9.63
2022-08-14T21:21:00.762Z,9.55
2022-08-14T21:23:32.843Z,8.93
2022-08-14T21:25:59.805Z,9.40
2022-08-14T21:28:29.953Z,9.43
2022-08-14T21:30:57.604Z,9.00
2022-08-14T21:33:25.103Z,9.45
2022-08-14T21:35:55.624Z,9.10
2022-08-14T21:38:33.716Z,9.05
2022-08-14T21:41:43.352Z,9.32
2022-08-14T21:44:18.107Z,9.57
2022-08-14T21:46:55.863Z,9.50
2022-08-14T21:49:38.221Z,9.45
2022-08-14T21:52:51.383Z,9.77
2022-08-14T21:54:58.778Z,10.13
2022-08-14T21:57:56.389Z,9.93
2022-08-14T22:00:34.527Z,10.13
2022-08-14T22:03:05.853Z,9.77
2022-08-14T22:05:32.964Z,10.20
2022-08-14T22:08:02.311Z,9.70
2022-08-14T22:10:29.864Z,10.80
2022-08-14T22:15:29.947Z,10.75
2022-08-14T22:17:58.461Z,9.80
2022-08-14T22:20:28.707Z,10.82
2022-08-14T22:22:56.592Z,10.65
2022-08-14T22:25:33.504Z,10.77
2022-08-14T22:28:02.886Z,11.45
2022-08-14T22:30:30.337Z,11.17
2022-08-14T22:32:58.596Z,11.38
2022-08-14T22:35:27.726Z,10.50
2022-08-14T22:38:35.895Z,11.65
2022-08-14T22:40:57.441Z,11.13
2022-08-14T22:43:31.686Z,12.10
2022-08-14T22:46:02.119Z,11.70
2022-08-14T22:48:29.331Z,12.40
2022-08-14T22:50:56.022Z,12.43
2022-08-14T22:53:23.714Z,12.15
2022-08-14T22:55:52.006Z,12.40
2022-08-14T22:58:30.131Z,11.70
2022-08-14T23:01:00.999Z,11.57
2022-08-14T23:03:29.692Z,12.10
2022-08-14T23:06:02.099Z,12.00
2022-08-14T23:09:00.190Z,11.48
2022-08-14T23:11:15.465Z,12.18
2022-08-14T23:13:46.305Z,12.07
2022-08-14T23:16:19.870Z,12.27
2022-08-14T23:18:47.969Z,12.10
2022-08-14T23:21:24.658Z,11.48
2022-08-14T23:23:55.077Z,11.75
2022-08-14T23:26:47.145Z,11.57
2022-08-14T23:29:11.305Z,10.75
2022-08-14T23:31:39.376Z,11.18
2022-08-14T23:34:09.027Z,11.07
2022-08-14T23:36:53.444Z,10.43
2022-08-14T23:39:24.665Z,10.75
2022-08-14T23:41:56.475Z,11.00
2022-08-14T23:44:24.271Z,11.07
2022-08-14T23:46:57.129Z,11.43
2022-08-14T23:49:28.674Z,11.73
2022-08-14T23:52:51.160Z,10.52
2022-08-14T23:55:01.745Z,10.55
2022-08-14T23:57:28.693Z,10.57
2022-08-14T23:59:57.295Z,10.73
